sensor_id;sensor_type;location;lat;lon;timestamp;temperature;humidity
11538;DHT22;50159;49.426;11.182;2023-03-30T00:01:04;10.80;99.90
11538;DHT22;50159;49.426;11.182;2023-03-30T00:03:37;10.80;99.90
11538;DHT22;50159;49.426;11.182;2023-03-30T00:06:05;10.80;99.90
11538;DHT22;50159;49.426;11.182;2023-03-30T00:08:32;10.80;99.90
11538;DHT22;50159;49.426;11.182;2023-03-30T00:11:04;10.80;99.90
11538;DHT22;50159;49.426;11.182;2023-03-30T00:13:37;10.80;99.90
11538;DHT22;50159;49.426;11.182;2023-03-30T00:16:07;10.80;99.90
11538;DHT22;50159;49.426;11.182;2023-03-30T00:18:36;10.80;99.90
11538;DHT22;50159;49.426;11.182;2023-03-30T00:21:06;10.80;99.90
11538;DHT22;50159;49.426;11.182;2023-03-30T00:23:34;10.80;99.90
11538;DHT22;50159;49.426;11.182;2023-03-30T00:26:01;10.80;99.90
11538;DHT22;50159;49.426;11.182;2023-03-30T00:28:29;10.80;99.90
11538;DHT22;50159;49.426;11.182;2023-03-30T00:30:57;10.80;99.90
11538;DHT22;50159;49.426;11.182;2023-03-30T00:33:24;10.80;99.90
11538;DHT22;50159;49.426;11.182;2023-03-30T00:36:10;10.80;99.90
11538;DHT22;50159;49.426;11.182;2023-03-30T00:38:36;10.70;99.90
11538;DHT22;50159;49.426;11.182;2023-03-30T00:41:03;10.70;99.90
11538;DHT22;50159;49.426;11.182;2023-03-30T00:43:31;10.70;99.90
11538;DHT22;50159;49.426;11.182;2023-03-30T00:45:59;10.70;99.90
11538;DHT22;50159;49.426;11.182;2023-03-30T00:48:31;10.70;99.90
11538;DHT22;50159;49.426;11.182;2023-03-30T00:51:03;10.70;99.90
11538;DHT22;50159;49.426;11.182;2023-03-30T00:53:39;10.70;99.90
11538;DHT22;50159;49.426;11.182;2023-03-30T00:56:10;10.70;99.90
11538;DHT22;50159;49.426;11.182;2023-03-30T00:58:41;10.70;99.90
11538;DHT22;50159;49.426;11.182;2023-03-30T01:01:11;10.70;99.90
11538;DHT22;50159;49.426;11.182;2023-03-30T01:03:45;10.70;99.90
11538;DHT22;50159;49.426;11.182;2023-03-30T01:06:15;10.70;99.90
11538;DHT22;50159;49.426;11.182;2023-03-30T01:08:44;10.70;99.90
11538;DHT22;50159;49.426;11.182;2023-03-30T01:11:11;10.70;99.90
11538;DHT22;50159;49.426;11.182;2023-03-30T01:13:41;10.70;99.90
11538;DHT22;50159;49.426;11.182;2023-03-30T01:16:30;10.70;99.90
11538;DHT22;50159;49.426;11.182;2023-03-30T01:22:46;10.70;99.90
11538;DHT22;50159;49.426;11.182;2023-03-30T01:28:50;10.70;99.90
11538;DHT22;50159;49.426;11.182;2023-03-30T01:31:43;10.70;99.90
11538;DHT22;50159;49.426;11.182;2023-03-30T01:37:45;10.60;99.90
11538;DHT22;50159;49.426;11.182;2023-03-30T01:40:31;10.60;99.90
11538;DHT22;50159;49.426;11.182;2023-03-30T01:43:15;10.60;99.90
11538;DHT22;50159;49.426;11.182;2023-03-30T01:45:51;10.50;99.90
11538;DHT22;50159;49.426;11.182;2023-03-30T01:48:29;10.50;99.90
11538;DHT22;50159;49.426;11.182;2023-03-30T01:51:19;10.50;99.90
11538;DHT22;50159;49.426;11.182;2023-03-30T01:54:06;10.50;99.90
11538;DHT22;50159;49.426;11.182;2023-03-30T01:56:46;10.50;99.90
11538;DHT22;50159;49.426;11.182;2023-03-30T01:59:23;10.50;99.90
11538;DHT22;50159;49.426;11.182;2023-03-30T02:01:56;10.50;99.90
11538;DHT22;50159;49.426;11.182;2023-03-30T02:04:35;10.50;99.90
11538;DHT22;50159;49.426;11.182;2023-03-30T02:07:15;10.60;99.90
11538;DHT22;50159;49.426;11.182;2023-03-30T02:09:47;10.60;99.90
11538;DHT22;50159;49.426;11.182;2023-03-30T02:12:18;10.60;99.90
11538;DHT22;50159;49.426;11.182;2023-03-30T02:14:47;10.60;99.90
11538;DHT22;50159;49.426;11.182;2023-03-30T02:17:19;10.60;99.90
11538;DHT22;50159;49.426;11.182;2023-03-30T02:19:49;10.60;99.90
11538;DHT22;50159;49.426;11.182;2023-03-30T02:22:18;10.60;99.90
11538;DHT22;50159;49.426;11.182;2023-03-30T02:24:47;10.60;99.90
11538;DHT22;50159;49.426;11.182;2023-03-30T02:27:17;10.60;99.90
11538;DHT22;50159;49.426;11.182;2023-03-30T02:29:45;10.50;99.90
11538;DHT22;50159;49.426;11.182;2023-03-30T02:32:18;10.50;99.90
11538;DHT22;50159;49.426;11.182;2023-03-30T02:35:02;10.50;99.90
11538;DHT22;50159;49.426;11.182;2023-03-30T02:41:13;10.40;99.90
11538;DHT22;50159;49.426;11.182;2023-03-30T02:44:36;10.30;99.90
11538;DHT22;50159;49.426;11.182;2023-03-30T02:50:16;10.20;99.90
11538;DHT22;50159;49.426;11.182;2023-03-30T02:53:46;10.10;99.90
11538;DHT22;50159;49.426;11.182;2023-03-30T02:56:34;10.10;99.90
11538;DHT22;50159;49.426;11.182;2023-03-30T02:59:12;10.00;99.90
11538;DHT22;50159;49.426;11.182;2023-03-30T03:01:55;9.90;99.90
11538;DHT22;50159;49.426;11.182;2023-03-30T03:04:27;9.90;99.90
11538;DHT22;50159;49.426;11.182;2023-03-30T03:06:55;9.80;99.90
11538;DHT22;50159;49.426;11.182;2023-03-30T03:09:22;9.80;99.90
11538;DHT22;50159;49.426;11.182;2023-03-30T03:11:51;9.70;99.90
11538;DHT22;50159;49.426;11.182;2023-03-30T03:14:17;9.70;99.90
11538;DHT22;50159;49.426;11.182;2023-03-30T03:16:44;9.70;99.90
11538;DHT22;50159;49.426;11.182;2023-03-30T03:19:11;9.60;99.90
11538;DHT22;50159;49.426;11.182;2023-03-30T03:21:38;9.60;99.90
11538;DHT22;50159;49.426;11.182;2023-03-30T03:24:05;9.60;99.90
11538;DHT22;50159;49.426;11.182;2023-03-30T03:26:32;9.60;99.90
11538;DHT22;50159;49.426;11.182;2023-03-30T03:28:59;9.60;99.90
11538;DHT22;50159;49.426;11.182;2023-03-30T03:31:26;9.60;99.90
11538;DHT22;50159;49.426;11.182;2023-03-30T03:33:53;9.50;99.90
11538;DHT22;50159;49.426;11.182;2023-03-30T03:36:19;9.60;99.90
11538;DHT22;50159;49.426;11.182;2023-03-30T03:38:48;9.60;99.90
11538;DHT22;50159;49.426;11.182;2023-03-30T03:41:14;9.60;99.90
11538;DHT22;50159;49.426;11.182;2023-03-30T03:43:41;9.60;99.90
11538;DHT22;50159;49.426;11.182;2023-03-30T03:46:08;9.60;99.90
11538;DHT22;50159;49.426;11.182;2023-03-30T03:48:37;9.60;99.90
11538;DHT22;50159;49.426;11.182;2023-03-30T03:51:04;9.60;99.90
11538;DHT22;50159;49.426;11.182;2023-03-30T03:53:32;9.60;99.90
11538;DHT22;50159;49.426;11.182;2023-03-30T03:55:59;9.60;99.90
11538;DHT22;50159;49.426;11.182;2023-03-30T03:58:25;9.60;99.90
11538;DHT22;50159;49.426;11.182;2023-03-30T04:00:57;9.60;99.90
11538;DHT22;50159;49.426;11.182;2023-03-30T04:03:25;9.60;99.90
11538;DHT22;50159;49.426;11.182;2023-03-30T04:05:52;9.60;99.90
11538;DHT22;50159;49.426;11.182;2023-03-30T04:08:19;9.60;99.90
11538;DHT22;50159;49.426;11.182;2023-03-30T04:10:46;9.60;99.90
11538;DHT22;50159;49.426;11.182;2023-03-30T04:13:13;9.60;99.90
11538;DHT22;50159;49.426;11.182;2023-03-30T04:15:40;9.50;99.90
11538;DHT22;50159;49.426;11.182;2023-03-30T04:18:07;9.50;99.90
11538;DHT22;50159;49.426;11.182;2023-03-30T04:20:34;9.60;99.90
11538;DHT22;50159;49.426;11.182;2023-03-30T04:23:01;9.60;99.90
11538;DHT22;50159;49.426;11.182;2023-03-30T04:25:28;9.60;99.90
11538;DHT22;50159;49.426;11.182;2023-03-30T04:27:55;9.60;99.90
11538;DHT22;50159;49.426;11.182;2023-03-30T04:30:23;9.60;99.90
11538;DHT22;50159;49.426;11.182;2023-03-30T04:32:50;9.60;99.90
11538;DHT22;50159;49.426;11.182;2023-03-30T04:35:31;9.60;99.90
11538;DHT22;50159;49.426;11.182;2023-03-30T04:37:59;9.70;99.90
11538;DHT22;50159;49.426;11.182;2023-03-30T04:40:27;9.70;99.90
11538;DHT22;50159;49.426;11.182;2023-03-30T04:42:54;9.70;99.90
11538;DHT22;50159;49.426;11.182;2023-03-30T04:45:28;9.80;99.90
11538;DHT22;50159;49.426;11.182;2023-03-30T04:47:56;9.80;99.90
11538;DHT22;50159;49.426;11.182;2023-03-30T04:50:23;9.90;99.90
11538;DHT22;50159;49.426;11.182;2023-03-30T04:52:50;9.90;99.90
11538;DHT22;50159;49.426;11.182;2023-03-30T04:55:17;10.00;99.90
11538;DHT22;50159;49.426;11.182;2023-03-30T04:57:43;10.10;99.90
11538;DHT22;50159;49.426;11.182;2023-03-30T05:00:10;10.30;99.90
11538;DHT22;50159;49.426;11.182;2023-03-30T05:02:39;10.40;99.90
11538;DHT22;50159;49.426;11.182;2023-03-30T05:05:06;10.50;99.90
11538;DHT22;50159;49.426;11.182;2023-03-30T05:07:33;10.60;99.90
11538;DHT22;50159;49.426;11.182;2023-03-30T05:10:00;10.60;99.90
11538;DHT22;50159;49.426;11.182;2023-03-30T05:12:27;10.60;99.90
11538;DHT22;50159;49.426;11.182;2023-03-30T05:14:54;10.50;99.90
11538;DHT22;50159;49.426;11.182;2023-03-30T05:17:21;10.50;99.90
11538;DHT22;50159;49.426;11.182;2023-03-30T05:19:47;10.40;99.90
11538;DHT22;50159;49.426;11.182;2023-03-30T05:22:14;10.40;99.90
11538;DHT22;50159;49.426;11.182;2023-03-30T05:24:41;10.30;99.90
11538;DHT22;50159;49.426;11.182;2023-03-30T05:27:08;10.30;99.90
11538;DHT22;50159;49.426;11.182;2023-03-30T05:29:35;10.20;99.90
11538;DHT22;50159;49.426;11.182;2023-03-30T05:32:02;10.10;99.90
11538;DHT22;50159;49.426;11.182;2023-03-30T05:34:29;10.10;99.90
11538;DHT22;50159;49.426;11.182;2023-03-30T05:36:55;10.10;99.90
11538;DHT22;50159;49.426;11.182;2023-03-30T05:39:22;10.10;99.90
11538;DHT22;50159;49.426;11.182;2023-03-30T05:41:49;10.00;99.90
11538;DHT22;50159;49.426;11.182;2023-03-30T05:44:16;10.00;99.90
11538;DHT22;50159;49.426;11.182;2023-03-30T05:46:46;10.00;99.90
11538;DHT22;50159;49.426;11.182;2023-03-30T05:49:12;10.00;99.90
11538;DHT22;50159;49.426;11.182;2023-03-30T05:51:39;10.00;99.90
11538;DHT22;50159;49.426;11.182;2023-03-30T05:54:10;10.00;99.90
11538;DHT22;50159;49.426;11.182;2023-03-30T05:56:38;10.00;99.90
11538;DHT22;50159;49.426;11.182;2023-03-30T05:59:08;10.00;99.90
11538;DHT22;50159;49.426;11.182;2023-03-30T06:01:36;10.10;99.90
11538;DHT22;50159;49.426;11.182;2023-03-30T06:04:03;10.10;99.90
11538;DHT22;50159;49.426;11.182;2023-03-30T06:06:31;10.20;99.90
11538;DHT22;50159;49.426;11.182;2023-03-30T06:08:58;10.20;99.90
11538;DHT22;50159;49.426;11.182;2023-03-30T06:11:25;10.20;99.90
11538;DHT22;50159;49.426;11.182;2023-03-30T06:13:52;10.20;99.90
11538;DHT22;50159;49.426;11.182;2023-03-30T06:16:18;10.30;99.90
11538;DHT22;50159;49.426;11.182;2023-03-30T06:18:46;10.30;99.90
11538;DHT22;50159;49.426;11.182;2023-03-30T06:21:13;10.30;99.90
11538;DHT22;50159;49.426;11.182;2023-03-30T06:23:39;10.30;99.90
11538;DHT22;50159;49.426;11.182;2023-03-30T06:26:08;10.40;99.90
11538;DHT22;50159;49.426;11.182;2023-03-30T06:28:36;10.50;99.90
11538;DHT22;50159;49.426;11.182;2023-03-30T06:31:07;10.50;99.90
11538;DHT22;50159;49.426;11.182;2023-03-30T06:33:35;10.50;99.90
11538;DHT22;50159;49.426;11.182;2023-03-30T06:36:09;10.50;99.90
11538;DHT22;50159;49.426;11.182;2023-03-30T06:38:37;10.50;99.90
11538;DHT22;50159;49.426;11.182;2023-03-30T06:41:05;10.60;99.90
11538;DHT22;50159;49.426;11.182;2023-03-30T06:43:35;10.70;99.90
11538;DHT22;50159;49.426;11.182;2023-03-30T06:46:02;10.70;99.90
11538;DHT22;50159;49.426;11.182;2023-03-30T06:48:30;10.70;99.90
11538;DHT22;50159;49.426;11.182;2023-03-30T06:50:57;10.80;99.90
11538;DHT22;50159;49.426;11.182;2023-03-30T06:53:24;10.80;99.90
11538;DHT22;50159;49.426;11.182;2023-03-30T06:55:54;10.80;99.90
11538;DHT22;50159;49.426;11.182;2023-03-30T06:58:23;10.80;99.90
11538;DHT22;50159;49.426;11.182;2023-03-30T07:00:53;10.80;99.90
11538;DHT22;50159;49.426;11.182;2023-03-30T07:03:20;10.80;99.90
11538;DHT22;50159;49.426;11.182;2023-03-30T07:05:48;10.80;99.90
11538;DHT22;50159;49.426;11.182;2023-03-30T07:08:17;10.90;99.90
11538;DHT22;50159;49.426;11.182;2023-03-30T07:10:46;10.90;99.90
11538;DHT22;50159;49.426;11.182;2023-03-30T07:13:14;10.90;99.90
11538;DHT22;50159;49.426;11.182;2023-03-30T07:15:44;11.00;99.90
11538;DHT22;50159;49.426;11.182;2023-03-30T07:18:12;11.00;99.90
11538;DHT22;50159;49.426;11.182;2023-03-30T07:20:40;11.00;99.90
11538;DHT22;50159;49.426;11.182;2023-03-30T07:23:07;11.00;99.90
11538;DHT22;50159;49.426;11.182;2023-03-30T07:25:34;11.10;99.90
11538;DHT22;50159;49.426;11.182;2023-03-30T07:28:01;11.10;99.90
11538;DHT22;50159;49.426;11.182;2023-03-30T07:30:28;11.10;99.90
11538;DHT22;50159;49.426;11.182;2023-03-30T07:32:55;11.10;99.90
11538;DHT22;50159;49.426;11.182;2023-03-30T07:35:24;11.10;99.90
11538;DHT22;50159;49.426;11.182;2023-03-30T07:37:52;11.10;99.90
11538;DHT22;50159;49.426;11.182;2023-03-30T07:40:29;11.10;99.90
11538;DHT22;50159;49.426;11.182;2023-03-30T07:42:56;11.10;99.90
11538;DHT22;50159;49.426;11.182;2023-03-30T07:45:23;11.10;99.90
11538;DHT22;50159;49.426;11.182;2023-03-30T07:47:49;11.10;99.90
11538;DHT22;50159;49.426;11.182;2023-03-30T07:50:16;11.10;99.90
11538;DHT22;50159;49.426;11.182;2023-03-30T07:52:43;11.10;99.90
11538;DHT22;50159;49.426;11.182;2023-03-30T07:55:10;11.10;99.90
11538;DHT22;50159;49.426;11.182;2023-03-30T07:57:37;11.10;99.90
11538;DHT22;50159;49.426;11.182;2023-03-30T08:00:04;11.10;99.90
11538;DHT22;50159;49.426;11.182;2023-03-30T08:02:32;11.00;99.90
11538;DHT22;50159;49.426;11.182;2023-03-30T08:04:59;11.10;99.90
11538;DHT22;50159;49.426;11.182;2023-03-30T08:07:26;11.10;99.90
11538;DHT22;50159;49.426;11.182;2023-03-30T08:09:54;11.10;99.90
11538;DHT22;50159;49.426;11.182;2023-03-30T08:12:21;11.10;99.90
11538;DHT22;50159;49.426;11.182;2023-03-30T08:14:47;11.10;99.90
11538;DHT22;50159;49.426;11.182;2023-03-30T08:17:14;11.10;99.90
11538;DHT22;50159;49.426;11.182;2023-03-30T08:19:41;11.10;99.90
11538;DHT22;50159;49.426;11.182;2023-03-30T08:22:08;11.20;99.90
11538;DHT22;50159;49.426;11.182;2023-03-30T08:24:35;11.10;99.90
11538;DHT22;50159;49.426;11.182;2023-03-30T08:27:02;11.10;99.90
11538;DHT22;50159;49.426;11.182;2023-03-30T08:29:28;11.10;99.90
11538;DHT22;50159;49.426;11.182;2023-03-30T08:31:56;11.20;99.90
11538;DHT22;50159;49.426;11.182;2023-03-30T08:34:23;11.10;99.90
11538;DHT22;50159;49.426;11.182;2023-03-30T08:36:50;11.10;99.90
11538;DHT22;50159;49.426;11.182;2023-03-30T08:39:17;11.10;99.90
11538;DHT22;50159;49.426;11.182;2023-03-30T08:45:09;11.10;99.90
11538;DHT22;50159;49.426;11.182;2023-03-30T08:47:40;11.10;99.90
11538;DHT22;50159;49.426;11.182;2023-03-30T08:50:28;11.10;99.90
11538;DHT22;50159;49.426;11.182;2023-03-30T08:53:01;11.10;99.90
11538;DHT22;50159;49.426;11.182;2023-03-30T08:55:48;11.10;99.90
11538;DHT22;50159;49.426;11.182;2023-03-30T08:58:44;11.10;99.90
11538;DHT22;50159;49.426;11.182;2023-03-30T09:01:39;11.10;99.90
11538;DHT22;50159;49.426;11.182;2023-03-30T09:04:27;11.10;99.90
11538;DHT22;50159;49.426;11.182;2023-03-30T09:07:14;11.10;99.90
11538;DHT22;50159;49.426;11.182;2023-03-30T09:09:46;11.10;99.90
11538;DHT22;50159;49.426;11.182;2023-03-30T09:15:25;11.10;99.90
11538;DHT22;50159;49.426;11.182;2023-03-30T09:18:18;11.20;99.90
11538;DHT22;50159;49.426;11.182;2023-03-30T09:20:53;11.20;99.90
11538;DHT22;50159;49.426;11.182;2023-03-30T09:23:26;11.20;99.90
11538;DHT22;50159;49.426;11.182;2023-03-30T09:26:09;11.20;99.90
11538;DHT22;50159;49.426;11.182;2023-03-30T09:29:02;11.30;99.90
11538;DHT22;50159;49.426;11.182;2023-03-30T09:32:12;11.40;99.90
11538;DHT22;50159;49.426;11.182;2023-03-30T09:37:16;11.50;99.90
11538;DHT22;50159;49.426;11.182;2023-03-30T09:39:45;11.50;99.90
11538;DHT22;50159;49.426;11.182;2023-03-30T09:45:20;11.50;99.90
11538;DHT22;50159;49.426;11.182;2023-03-30T09:47:53;11.50;99.90
11538;DHT22;50159;49.426;11.182;2023-03-30T09:50:23;11.40;99.90
11538;DHT22;50159;49.426;11.182;2023-03-30T09:53:05;11.40;99.90
11538;DHT22;50159;49.426;11.182;2023-03-30T09:55:54;11.40;99.90
11538;DHT22;50159;49.426;11.182;2023-03-30T09:58:43;11.50;99.90
11538;DHT22;50159;49.426;11.182;2023-03-30T10:01:12;11.50;99.90
11538;DHT22;50159;49.426;11.182;2023-03-30T10:03:43;11.50;99.90
11538;DHT22;50159;49.426;11.182;2023-03-30T10:06:16;11.50;99.90
11538;DHT22;50159;49.426;11.182;2023-03-30T10:11:18;11.60;99.90
11538;DHT22;50159;49.426;11.182;2023-03-30T10:13:48;11.80;99.90
11538;DHT22;50159;49.426;11.182;2023-03-30T10:16:25;11.80;99.90
11538;DHT22;50159;49.426;11.182;2023-03-30T10:19:03;11.90;99.90
11538;DHT22;50159;49.426;11.182;2023-03-30T10:21:36;11.90;99.90
11538;DHT22;50159;49.426;11.182;2023-03-30T10:24:19;12.00;99.90
11538;DHT22;50159;49.426;11.182;2023-03-30T10:27:16;12.00;99.90
11538;DHT22;50159;49.426;11.182;2023-03-30T10:29:45;12.00;99.90
11538;DHT22;50159;49.426;11.182;2023-03-30T10:32:17;12.00;99.90
11538;DHT22;50159;49.426;11.182;2023-03-30T10:34:51;12.00;99.90
11538;DHT22;50159;49.426;11.182;2023-03-30T10:39:58;12.10;99.90
11538;DHT22;50159;49.426;11.182;2023-03-30T10:42:30;12.20;99.90
11538;DHT22;50159;49.426;11.182;2023-03-30T10:45:04;12.30;99.90
11538;DHT22;50159;49.426;11.182;2023-03-30T10:47:48;12.40;99.90
11538;DHT22;50159;49.426;11.182;2023-03-30T10:56:56;12.70;99.90
11538;DHT22;50159;49.426;11.182;2023-03-30T11:02:53;12.70;99.90
11538;DHT22;50159;49.426;11.182;2023-03-30T11:05:37;12.70;99.90
11538;DHT22;50159;49.426;11.182;2023-03-30T11:08:14;12.80;99.90
11538;DHT22;50159;49.426;11.182;2023-03-30T11:10:53;12.80;99.90
11538;DHT22;50159;49.426;11.182;2023-03-30T11:13:52;12.80;99.90
11538;DHT22;50159;49.426;11.182;2023-03-30T11:16:58;12.80;99.90
11538;DHT22;50159;49.426;11.182;2023-03-30T11:19:39;12.80;99.90
11538;DHT22;50159;49.426;11.182;2023-03-30T11:25:23;12.90;99.90
11538;DHT22;50159;49.426;11.182;2023-03-30T11:31:21;12.90;99.90
11538;DHT22;50159;49.426;11.182;2023-03-30T11:42:42;13.10;99.90
11538;DHT22;50159;49.426;11.182;2023-03-30T11:51:44;13.00;99.90
11538;DHT22;50159;49.426;11.182;2023-03-30T11:57:44;13.00;99.90
11538;DHT22;50159;49.426;11.182;2023-03-30T12:00:50;12.90;99.90
11538;DHT22;50159;49.426;11.182;2023-03-30T12:03:39;12.90;99.90
11538;DHT22;50159;49.426;11.182;2023-03-30T12:12:12;12.90;99.90
11538;DHT22;50159;49.426;11.182;2023-03-30T12:15:02;12.90;99.90
11538;DHT22;50159;49.426;11.182;2023-03-30T12:34:39;13.10;99.90
11538;DHT22;50159;49.426;11.182;2023-03-30T12:37:34;13.10;99.90
11538;DHT22;50159;49.426;11.182;2023-03-30T12:40:06;13.30;99.90
11538;DHT22;50159;49.426;11.182;2023-03-30T12:43:00;13.50;99.90
11538;DHT22;50159;49.426;11.182;2023-03-30T12:46:06;13.50;99.90
11538;DHT22;50159;49.426;11.182;2023-03-30T12:55:33;14.20;99.90
11538;DHT22;50159;49.426;11.182;2023-03-30T12:58:25;14.40;99.90
11538;DHT22;50159;49.426;11.182;2023-03-30T13:04:07;14.70;99.90
11538;DHT22;50159;49.426;11.182;2023-03-30T13:06:56;14.70;99.90
11538;DHT22;50159;49.426;11.182;2023-03-30T13:25:39;14.20;99.90
11538;DHT22;50159;49.426;11.182;2023-03-30T13:37:16;14.50;99.90
11538;DHT22;50159;49.426;11.182;2023-03-30T13:42:44;14.40;99.90
11538;DHT22;50159;49.426;11.182;2023-03-30T13:50:49;15.10;99.90
11538;DHT22;50159;49.426;11.182;2023-03-30T13:53:20;15.10;99.80
11538;DHT22;50159;49.426;11.182;2023-03-30T13:55:51;15.10;98.80
11538;DHT22;50159;49.426;11.182;2023-03-30T13:58:27;15.00;99.00
11538;DHT22;50159;49.426;11.182;2023-03-30T14:01:05;14.90;99.50
11538;DHT22;50159;49.426;11.182;2023-03-30T14:03:40;14.90;98.40
11538;DHT22;50159;49.426;11.182;2023-03-30T14:06:26;14.90;99.10
11538;DHT22;50159;49.426;11.182;2023-03-30T14:09:09;14.90;98.30
11538;DHT22;50159;49.426;11.182;2023-03-30T14:11:41;15.20;98.90
11538;DHT22;50159;49.426;11.182;2023-03-30T14:17:11;15.40;98.30
11538;DHT22;50159;49.426;11.182;2023-03-30T14:22:47;15.30;98.60
11538;DHT22;50159;49.426;11.182;2023-03-30T14:25:35;15.70;98.60
11538;DHT22;50159;49.426;11.182;2023-03-30T14:28:12;15.90;97.30
11538;DHT22;50159;49.426;11.182;2023-03-30T14:31:10;16.10;96.80
11538;DHT22;50159;49.426;11.182;2023-03-30T14:33:42;17.40;96.10
11538;DHT22;50159;49.426;11.182;2023-03-30T14:36:14;19.90;80.40
11538;DHT22;50159;49.426;11.182;2023-03-30T14:38:48;22.30;68.70
11538;DHT22;50159;49.426;11.182;2023-03-30T14:41:25;24.20;58.00
11538;DHT22;50159;49.426;11.182;2023-03-30T14:43:59;24.30;52.30
11538;DHT22;50159;49.426;11.182;2023-03-30T14:46:38;23.40;54.20
11538;DHT22;50159;49.426;11.182;2023-03-30T14:49:21;22.40;54.20
11538;DHT22;50159;49.426;11.182;2023-03-30T14:51:52;21.20;56.10
11538;DHT22;50159;49.426;11.182;2023-03-30T14:54:27;19.80;59.40
11538;DHT22;50159;49.426;11.182;2023-03-30T14:56:58;18.50;64.10
11538;DHT22;50159;49.426;11.182;2023-03-30T14:59:32;17.60;68.00
11538;DHT22;50159;49.426;11.182;2023-03-30T15:02:21;17.10;71.60
11538;DHT22;50159;49.426;11.182;2023-03-30T15:04:51;16.60;73.80
11538;DHT22;50159;49.426;11.182;2023-03-30T15:07:19;16.20;76.90
11538;DHT22;50159;49.426;11.182;2023-03-30T15:09:57;15.80;80.70
11538;DHT22;50159;49.426;11.182;2023-03-30T15:12:34;15.40;84.40
11538;DHT22;50159;49.426;11.182;2023-03-30T15:15:06;15.20;88.40
11538;DHT22;50159;49.426;11.182;2023-03-30T15:17:38;15.00;90.70
11538;DHT22;50159;49.426;11.182;2023-03-30T15:20:13;14.80;92.10
11538;DHT22;50159;49.426;11.182;2023-03-30T15:22:47;14.70;93.50
11538;DHT22;50159;49.426;11.182;2023-03-30T15:25:19;14.60;94.40
11538;DHT22;50159;49.426;11.182;2023-03-30T15:28:08;14.60;94.80
11538;DHT22;50159;49.426;11.182;2023-03-30T15:30:41;14.60;95.20
11538;DHT22;50159;49.426;11.182;2023-03-30T15:33:24;14.50;94.10
11538;DHT22;50159;49.426;11.182;2023-03-30T15:36:06;14.50;93.20
11538;DHT22;50159;49.426;11.182;2023-03-30T15:38:47;14.50;93.40
11538;DHT22;50159;49.426;11.182;2023-03-30T15:41:20;14.50;93.40
11538;DHT22;50159;49.426;11.182;2023-03-30T15:44:09;14.50;92.90
11538;DHT22;50159;49.426;11.182;2023-03-30T15:46:48;14.50;92.40
11538;DHT22;50159;49.426;11.182;2023-03-30T15:49:19;14.50;91.90
11538;DHT22;50159;49.426;11.182;2023-03-30T15:51:51;14.50;91.70
11538;DHT22;50159;49.426;11.182;2023-03-30T15:54:37;14.50;91.60
11538;DHT22;50159;49.426;11.182;2023-03-30T15:59:42;14.50;91.60
11538;DHT22;50159;49.426;11.182;2023-03-30T16:02:46;14.40;91.90
11538;DHT22;50159;49.426;11.182;2023-03-30T16:05:18;14.40;91.30
11538;DHT22;50159;49.426;11.182;2023-03-30T16:07:48;14.40;91.90
11538;DHT22;50159;49.426;11.182;2023-03-30T16:10:17;14.70;91.70
11538;DHT22;50159;49.426;11.182;2023-03-30T16:12:54;15.40;90.00
11538;DHT22;50159;49.426;11.182;2023-03-30T16:15:25;16.10;84.00
11538;DHT22;50159;49.426;11.182;2023-03-30T16:17:53;16.60;80.50
11538;DHT22;50159;49.426;11.182;2023-03-30T16:20:22;16.70;76.30
11538;DHT22;50159;49.426;11.182;2023-03-30T16:22:52;16.50;74.10
11538;DHT22;50159;49.426;11.182;2023-03-30T16:25:21;16.10;75.90
11538;DHT22;50159;49.426;11.182;2023-03-30T16:28:03;15.70;77.30
11538;DHT22;50159;49.426;11.182;2023-03-30T16:30:32;15.60;78.50
11538;DHT22;50159;49.426;11.182;2023-03-30T16:33:03;15.60;80.80
11538;DHT22;50159;49.426;11.182;2023-03-30T16:35:30;15.90;79.30
11538;DHT22;50159;49.426;11.182;2023-03-30T16:37:57;16.20;77.60
11538;DHT22;50159;49.426;11.182;2023-03-30T16:40:38;16.60;75.80
11538;DHT22;50159;49.426;11.182;2023-03-30T16:43:08;16.90;73.70
11538;DHT22;50159;49.426;11.182;2023-03-30T16:45:35;17.10;72.20
11538;DHT22;50159;49.426;11.182;2023-03-30T16:48:03;16.80;73.40
11538;DHT22;50159;49.426;11.182;2023-03-30T16:50:45;16.30;74.70
11538;DHT22;50159;49.426;11.182;2023-03-30T16:53:14;15.70;77.70
11538;DHT22;50159;49.426;11.182;2023-03-30T16:55:41;15.10;80.10
11538;DHT22;50159;49.426;11.182;2023-03-30T16:58:11;14.70;83.10
11538;DHT22;50159;49.426;11.182;2023-03-30T17:00:47;14.40;85.50
11538;DHT22;50159;49.426;11.182;2023-03-30T17:03:17;14.10;87.70
11538;DHT22;50159;49.426;11.182;2023-03-30T17:05:45;13.90;89.90
11538;DHT22;50159;49.426;11.182;2023-03-30T17:08:19;13.70;90.70
11538;DHT22;50159;49.426;11.182;2023-03-30T17:10:49;13.60;91.30
11538;DHT22;50159;49.426;11.182;2023-03-30T17:13:16;13.50;91.80
11538;DHT22;50159;49.426;11.182;2023-03-30T17:15:44;13.40;92.20
11538;DHT22;50159;49.426;11.182;2023-03-30T17:18:16;13.30;92.50
11538;DHT22;50159;49.426;11.182;2023-03-30T17:20:47;13.30;92.80
11538;DHT22;50159;49.426;11.182;2023-03-30T17:23:22;13.20;93.10
11538;DHT22;50159;49.426;11.182;2023-03-30T17:25:51;13.20;93.40
11538;DHT22;50159;49.426;11.182;2023-03-30T17:28:27;13.20;93.70
11538;DHT22;50159;49.426;11.182;2023-03-30T17:30:58;13.20;93.60
11538;DHT22;50159;49.426;11.182;2023-03-30T17:33:29;13.30;93.70
11538;DHT22;50159;49.426;11.182;2023-03-30T17:35:58;13.30;93.50
11538;DHT22;50159;49.426;11.182;2023-03-30T17:38:27;13.40;93.40
11538;DHT22;50159;49.426;11.182;2023-03-30T17:40:55;13.40;93.30
11538;DHT22;50159;49.426;11.182;2023-03-30T17:43:23;13.40;93.30
11538;DHT22;50159;49.426;11.182;2023-03-30T17:45:49;13.40;93.30
11538;DHT22;50159;49.426;11.182;2023-03-30T17:48:18;13.30;93.40
11538;DHT22;50159;49.426;11.182;2023-03-30T17:50:49;13.20;93.70
11538;DHT22;50159;49.426;11.182;2023-03-30T17:53:17;13.20;93.90
11538;DHT22;50159;49.426;11.182;2023-03-30T17:55:48;13.10;94.00
11538;DHT22;50159;49.426;11.182;2023-03-30T17:58:21;13.00;94.20
11538;DHT22;50159;49.426;11.182;2023-03-30T18:01:03;13.00;94.50
11538;DHT22;50159;49.426;11.182;2023-03-30T18:03:32;12.90;94.90
11538;DHT22;50159;49.426;11.182;2023-03-30T18:06:00;12.80;95.30
11538;DHT22;50159;49.426;11.182;2023-03-30T18:08:27;12.70;96.10
11538;DHT22;50159;49.426;11.182;2023-03-30T18:10:57;12.60;96.80
11538;DHT22;50159;49.426;11.182;2023-03-30T18:13:26;12.50;97.30
11538;DHT22;50159;49.426;11.182;2023-03-30T18:15:55;12.30;97.50
11538;DHT22;50159;49.426;11.182;2023-03-30T18:18:26;12.20;98.00